createdAt,value
2018-07-24T00:02:40.877Z,18.70
2018-07-24T00:05:38.879Z,18.67
2018-07-24T00:08:36.930Z,18.44
2018-07-24T00:11:34.745Z,18.46
2018-07-24T00:14:32.770Z,18.33
2018-07-24T00:17:30.175Z,18.39
2018-07-24T00:20:28.106Z,18.37
2018-07-24T00:23:25.557Z,18.56
2018-07-24T00:26:23.520Z,18.77
2018-07-24T00:29:20.886Z,18.74
2018-07-24T00:32:18.974Z,18.63
2018-07-24T00:35:17.127Z,18.39
2018-07-24T00:38:14.438Z,18.15
2018-07-24T00:41:12.492Z,17.98
2018-07-24T00:44:10.589Z,18.00
2018-07-24T00:47:08.585Z,18.13
2018-07-24T00:50:06.774Z,18.16
2018-07-24T00:53:04.922Z,18.01
2018-07-24T00:56:03.081Z,17.94
2018-07-24T00:59:01.179Z,18.05
2018-07-24T01:01:58.357Z,17.97
2018-07-24T01:04:56.544Z,17.95
2018-07-24T01:07:54.374Z,17.96
2018-07-24T01:10:52.474Z,17.90
2018-07-24T01:13:50.575Z,17.41
2018-07-24T01:16:48.507Z,17.09
2018-07-24T01:19:45.869Z,17.24
2018-07-24T01:22:43.758Z,17.45
2018-07-24T01:25:41.609Z,17.67
2018-07-24T01:28:39.566Z,17.78
2018-07-24T01:31:37.579Z,17.82
2018-07-24T01:34:34.867Z,17.72
2018-07-24T01:37:32.719Z,17.65
2018-07-24T01:40:30.962Z,17.36
2018-07-24T01:43:29.034Z,17.38
2018-07-24T01:46:27.035Z,17.42
2018-07-24T01:49:24.304Z,17.37
2018-07-24T01:52:21.610Z,17.35
2018-07-24T01:55:20.538Z,17.36
2018-07-24T01:58:18.681Z,17.24
2018-07-24T02:01:16.768Z,17.28
2018-07-24T02:04:14.877Z,17.31
2018-07-24T02:07:13.035Z,17.34
2018-07-24T02:10:10.188Z,17.29
2018-07-24T02:13:08.168Z,17.25
2018-07-24T02:16:06.258Z,16.90
2018-07-24T02:19:04.243Z,16.83
2018-07-24T02:22:02.078Z,16.89
2018-07-24T02:24:59.166Z,16.93
2018-07-24T02:27:57.246Z,17.03
2018-07-24T02:30:55.228Z,17.17
2018-07-24T02:33:53.230Z,17.23
2018-07-24T02:36:51.145Z,17.19
2018-07-24T02:39:49.150Z,17.17
2018-07-24T02:42:47.299Z,16.90
2018-07-24T02:45:45.362Z,16.92
2018-07-24T02:48:43.454Z,16.85
2018-07-24T02:51:41.638Z,16.91
2018-07-24T02:54:38.974Z,16.84
2018-07-24T02:57:36.686Z,16.80
2018-07-24T03:00:34.434Z,16.84
2018-07-24T03:03:32.616Z,16.72
2018-07-24T03:06:30.611Z,16.64
2018-07-24T03:09:29.617Z,16.54
2018-07-24T03:12:27.175Z,16.55
2018-07-24T03:15:25.031Z,16.59
2018-07-24T03:18:23.117Z,16.64
2018-07-24T03:21:21.182Z,16.79
2018-07-24T03:24:19.364Z,16.88
2018-07-24T03:27:17.218Z,16.80
2018-07-24T03:30:15.234Z,16.61
2018-07-24T03:33:13.366Z,16.36
2018-07-24T03:36:11.446Z,16.26
2018-07-24T03:39:09.637Z,16.26
2018-07-24T03:42:07.813Z,16.14
2018-07-24T03:45:05.927Z,16.33
2018-07-24T03:48:04.008Z,16.51
2018-07-24T03:51:01.942Z,16.80
2018-07-24T03:53:59.992Z,16.87
2018-07-24T03:56:57.273Z,17.08
2018-07-24T03:59:54.611Z,17.44
2018-07-24T04:02:52.410Z,17.88
2018-07-24T04:05:50.513Z,18.31
2018-07-24T04:08:48.422Z,18.45
2018-07-24T04:11:45.622Z,18.75
2018-07-24T04:14:43.662Z,19.17
2018-07-24T04:17:41.646Z,19.67
2018-07-24T04:20:39.726Z,20.32
2018-07-24T04:23:37.584Z,21.21
2018-07-24T04:26:35.578Z,21.60
2018-07-24T04:29:33.549Z,21.48
2018-07-24T04:32:30.704Z,21.35
2018-07-24T04:35:28.668Z,22.05
2018-07-24T04:38:26.550Z,22.57
2018-07-24T04:41:24.730Z,23.30
2018-07-24T04:44:22.686Z,24.00
2018-07-24T04:47:20.790Z,24.47
2018-07-24T04:50:18.842Z,24.64
2018-07-24T04:53:16.738Z,24.96
2018-07-24T04:56:13.837Z,25.53
2018-07-24T04:59:11.950Z,26.13
2018-07-24T05:02:10.161Z,27.53
2018-07-24T05:05:08.074Z,27.89
2018-07-24T05:08:05.374Z,26.79
2018-07-24T05:11:02.523Z,27.54
2018-07-24T05:14:00.719Z,28.21
2018-07-24T05:16:58.771Z,28.49
2018-07-24T05:19:56.699Z,28.79
2018-07-24T05:22:54.507Z,28.82
2018-07-24T05:25:51.962Z,29.53
2018-07-24T05:28:50.000Z,29.82
2018-07-24T05:31:47.979Z,29.93
2018-07-24T05:34:46.099Z,30.46
2018-07-24T05:37:44.085Z,31.04
2018-07-24T05:40:42.176Z,31.22
2018-07-24T05:43:39.413Z,30.71
2018-07-24T05:46:37.124Z,31.03
2018-07-24T05:49:35.492Z,31.07
2018-07-24T05:52:33.631Z,31.03
2018-07-24T05:55:31.622Z,31.07
2018-07-24T05:58:29.712Z,30.76
2018-07-24T06:01:27.562Z,31.23
2018-07-24T06:04:24.906Z,31.54
2018-07-24T06:07:22.936Z,31.75
2018-07-24T06:10:20.079Z,32.03
2018-07-24T06:13:17.389Z,32.44
2018-07-24T06:16:15.493Z,33.66
2018-07-24T06:19:12.778Z,32.77
2018-07-24T06:22:10.227Z,33.72
2018-07-24T06:25:08.063Z,33.85
2018-07-24T06:28:05.318Z,34.84
2018-07-24T06:31:03.310Z,35.36
2018-07-24T06:34:00.479Z,35.72
2018-07-24T06:36:57.638Z,35.86
2018-07-24T06:39:55.471Z,35.35
2018-07-24T06:42:53.806Z,35.34
2018-07-24T06:45:51.754Z,35.04
2018-07-24T06:48:49.543Z,36.37
2018-07-24T06:51:47.719Z,36.38
2018-07-24T06:54:45.787Z,36.63
2018-07-24T06:57:43.691Z,36.58
2018-07-24T07:00:41.930Z,36.99
2018-07-24T07:03:40.003Z,37.70
2018-07-24T07:06:38.183Z,36.96
2018-07-24T07:09:36.070Z,37.51
2018-07-24T07:12:34.425Z,38.10
2018-07-24T07:15:32.321Z,37.99
2018-07-24T07:18:29.588Z,38.03
2018-07-24T07:21:27.847Z,37.61
2018-07-24T07:24:25.037Z,38.39
2018-07-24T07:27:22.851Z,38.08
2018-07-24T07:30:21.193Z,37.80
2018-07-24T07:33:20.288Z,37.05
2018-07-24T07:36:17.675Z,37.91
2018-07-24T07:39:16.850Z,39.18
2018-07-24T07:42:14.198Z,38.57
2018-07-24T07:45:12.308Z,38.53
2018-07-24T07:48:10.450Z,37.98
2018-07-24T07:51:08.452Z,40.11
2018-07-24T07:54:06.446Z,39.81
2018-07-24T07:57:04.656Z,39.15
2018-07-24T08:00:02.897Z,39.96
2018-07-24T08:03:01.106Z,40.56
2018-07-24T08:05:59.294Z,39.30
2018-07-24T08:08:57.591Z,40.54
2018-07-24T08:11:55.475Z,40.41
2018-07-24T08:14:53.543Z,41.62
2018-07-24T08:17:51.653Z,41.72
2018-07-24T08:20:49.855Z,40.36
2018-07-24T08:23:47.894Z,39.56
2018-07-24T08:26:45.889Z,40.58
2018-07-24T08:29:43.968Z,41.26
2018-07-24T08:32:42.133Z,41.51
2018-07-24T08:35:40.098Z,39.12
2018-07-24T08:38:37.290Z,38.84
2018-07-24T08:41:34.842Z,39.20
2018-07-24T08:44:32.055Z,39.51
2018-07-24T08:47:30.315Z,39.72
2018-07-24T08:50:28.596Z,39.61
2018-07-24T08:53:26.831Z,39.96
2018-07-24T08:56:24.878Z,40.27
2018-07-24T08:59:23.165Z,40.76
2018-07-24T09:02:20.966Z,40.23
2018-07-24T09:05:18.287Z,38.26
2018-07-24T09:08:16.351Z,36.59
2018-07-24T09:11:14.581Z,37.73
2018-07-24T09:14:12.218Z,37.18
2018-07-24T09:17:10.397Z,39.37
2018-07-24T09:20:07.659Z,38.34
2018-07-24T09:23:05.779Z,38.62
2018-07-24T09:26:02.885Z,39.42
2018-07-24T09:29:00.947Z,38.24
2018-07-24T09:31:58.851Z,38.54
2018-07-24T09:34:56.884Z,38.36
2018-07-24T09:37:54.917Z,39.78
2018-07-24T09:40:52.911Z,39.54
2018-07-24T09:43:50.028Z,38.68
2018-07-24T09:46:47.924Z,38.84
2018-07-24T09:49:45.883Z,38.84
2018-07-24T09:52:43.927Z,38.65
2018-07-24T09:55:41.919Z,40.44
2018-07-24T09:58:39.999Z,40.00
2018-07-24T10:01:39.465Z,37.80
2018-07-24T10:04:37.502Z,36.78
2018-07-24T10:07:35.675Z,38.78
2018-07-24T10:10:33.531Z,37.23
2018-07-24T10:13:31.615Z,36.95
2018-07-24T10:16:29.705Z,36.67
2018-07-24T10:19:27.063Z,36.52
2018-07-24T10:22:25.336Z,36.77
2018-07-24T10:25:23.466Z,38.52
2018-07-24T10:28:21.838Z,39.36
2018-07-24T10:31:19.881Z,39.22
2018-07-24T10:34:17.635Z,39.81
2018-07-24T10:37:15.795Z,40.80
2018-07-24T10:40:13.986Z,40.52
2018-07-24T10:43:11.746Z,40.23
2018-07-24T10:46:09.605Z,40.60
2018-07-24T10:49:06.766Z,37.96
2018-07-24T10:52:04.874Z,36.13
2018-07-24T10:55:02.857Z,36.23
2018-07-24T10:57:59.883Z,36.75
2018-07-24T11:00:57.058Z,36.28
2018-07-24T11:03:54.931Z,36.47
2018-07-24T11:06:52.883Z,36.00
2018-07-24T11:09:50.773Z,36.64
2018-07-24T11:12:48.366Z,38.28
2018-07-24T11:15:46.386Z,36.62
2018-07-24T11:18:45.376Z,36.50
2018-07-24T11:21:43.290Z,37.31
2018-07-24T11:24:41.246Z,36.64
2018-07-24T11:27:39.017Z,37.09
2018-07-24T11:30:36.883Z,37.03
2018-07-24T11:33:35.035Z,37.30
2018-07-24T11:36:32.726Z,36.73
2018-07-24T11:39:31.700Z,36.59
2018-07-24T11:42:28.994Z,35.19
2018-07-24T11:45:26.754Z,33.86
2018-07-24T11:48:24.753Z,33.82
2018-07-24T11:51:22.713Z,33.58
2018-07-24T11:54:20.596Z,33.05
2018-07-24T11:57:18.685Z,32.60
2018-07-24T12:00:15.875Z,32.92
2018-07-24T12:03:13.988Z,32.53
2018-07-24T12:06:11.435Z,32.44
2018-07-24T12:09:09.537Z,32.70
2018-07-24T12:12:07.170Z,32.79
2018-07-24T12:15:05.312Z,32.82
2018-07-24T12:18:03.049Z,32.60
2018-07-24T12:21:01.193Z,32.61
2018-07-24T12:23:59.237Z,32.65
2018-07-24T12:26:57.274Z,32.70
2018-07-24T12:29:55.137Z,33.04
2018-07-24T12:32:52.991Z,32.57
2018-07-24T12:35:51.140Z,32.66
2018-07-24T12:38:49.242Z,32.67
2018-07-24T12:41:47.250Z,33.13
2018-07-24T12:44:45.265Z,33.45
2018-07-24T12:47:42.489Z,33.18
2018-07-24T12:50:40.702Z,32.68
2018-07-24T12:53:38.764Z,32.99
2018-07-24T12:56:36.994Z,33.31
2018-07-24T12:59:34.958Z,33.32
2018-07-24T13:02:33.066Z,33.21
2018-07-24T13:05:30.957Z,33.31
2018-07-24T13:08:29.082Z,33.30
2018-07-24T13:11:27.217Z,33.36
2018-07-24T13:14:25.191Z,33.27
2018-07-24T13:17:23.352Z,33.63
2018-07-24T13:20:21.600Z,33.80
2018-07-24T13:23:19.664Z,33.82
2018-07-24T13:26:17.355Z,33.74
2018-07-24T13:29:15.442Z,33.81
2018-07-24T13:32:13.922Z,33.59
2018-07-24T13:35:11.800Z,33.53
2018-07-24T13:38:10.042Z,33.74
2018-07-24T13:41:08.199Z,33.59
2018-07-24T13:44:06.122Z,33.76
2018-07-24T13:47:12.421Z,33.98
2018-07-24T13:50:10.387Z,33.73
2018-07-24T13:53:08.222Z,33.20
2018-07-24T13:56:06.270Z,33.34
2018-07-24T13:59:04.507Z,33.15
2018-07-24T14:02:01.671Z,33.31
2018-07-24T14:04:59.567Z,33.43
2018-07-24T14:07:56.806Z,33.55
2018-07-24T14:10:54.932Z,33.35
2018-07-24T14:25:47.396Z,33.29
2018-07-24T14:28:44.942Z,33.34
2018-07-24T14:31:42.932Z,33.46
2018-07-24T14:34:40.714Z,33.52
2018-07-24T14:37:38.859Z,33.40
2018-07-24T14:40:36.550Z,33.24
2018-07-24T14:43:34.149Z,33.48
2018-07-24T14:46:32.227Z,33.57
2018-07-24T14:49:29.920Z,33.45
2018-07-24T14:52:27.786Z,33.57
2018-07-24T14:55:25.046Z,33.37
2018-07-24T14:58:22.524Z,33.41
2018-07-24T15:01:20.549Z,33.14
2018-07-24T15:04:18.625Z,33.04
2018-07-24T15:07:16.439Z,33.13
2018-07-24T15:10:13.763Z,33.15
2018-07-24T15:13:11.893Z,33.16
2018-07-24T15:16:09.789Z,32.95
2018-07-24T15:19:07.007Z,32.76
2018-07-24T15:22:04.184Z,32.87
2018-07-24T15:25:01.544Z,32.98
2018-07-24T15:27:59.523Z,33.23
2018-07-24T15:30:57.052Z,33.30
2018-07-24T15:33:55.153Z,33.22
2018-07-24T15:36:53.342Z,33.24
2018-07-24T15:39:50.524Z,33.36
2018-07-24T15:42:48.647Z,33.52
2018-07-24T15:45:46.411Z,33.61
2018-07-24T15:48:43.650Z,33.71
2018-07-24T15:51:41.189Z,33.70
2018-07-24T15:54:39.242Z,33.64
2018-07-24T15:57:37.377Z,33.44
2018-07-24T16:00:35.122Z,33.37
2018-07-24T16:03:33.131Z,33.30
2018-07-24T16:06:30.343Z,33.18
2018-07-24T16:09:30.534Z,33.05
2018-07-24T16:12:28.731Z,32.92
2018-07-24T16:15:27.737Z,33.07
2018-07-24T16:18:25.827Z,33.03
2018-07-24T16:21:24.125Z,32.93
2018-07-24T16:24:22.041Z,32.97
2018-07-24T16:27:20.282Z,33.05
2018-07-24T16:30:17.479Z,33.10
2018-07-24T16:33:15.044Z,33.19
2018-07-24T16:36:12.255Z,33.33
2018-07-24T16:39:09.279Z,33.25
2018-07-24T16:42:06.929Z,33.28
2018-07-24T16:45:04.735Z,33.20
2018-07-24T16:48:02.055Z,33.23
2018-07-24T16:51:00.111Z,33.04
2018-07-24T16:53:57.998Z,32.78
2018-07-24T16:56:55.987Z,32.74
2018-07-24T16:59:54.270Z,32.73
2018-07-24T17:02:51.735Z,32.67
2018-07-24T17:05:49.686Z,32.66
2018-07-24T17:08:46.912Z,32.64
2018-07-24T17:11:45.199Z,32.65
2018-07-24T17:14:42.340Z,32.66
2018-07-24T17:17:39.509Z,32.65
2018-07-24T17:20:37.536Z,32.51
2018-07-24T17:23:34.839Z,32.46
2018-07-24T17:26:32.857Z,32.44
2018-07-24T17:29:30.998Z,32.40
2018-07-24T17:32:28.386Z,32.20
2018-07-24T17:35:26.395Z,32.18
2018-07-24T17:38:24.439Z,32.12
2018-07-24T17:41:21.722Z,32.07
2018-07-24T17:44:19.107Z,32.01
2018-07-24T17:47:16.735Z,31.95
2018-07-24T17:50:14.172Z,31.92
2018-07-24T17:53:11.892Z,31.92
2018-07-24T17:56:09.599Z,31.88
2018-07-24T17:59:06.994Z,31.85
2018-07-24T18:02:05.192Z,31.82
2018-07-24T18:05:03.303Z,31.74
2018-07-24T18:08:01.046Z,31.63
2018-07-24T18:10:59.070Z,31.53
2018-07-24T18:13:57.449Z,31.45
2018-07-24T18:16:55.187Z,31.39
2018-07-24T18:19:53.076Z,31.31
2018-07-24T18:22:51.090Z,31.26
2018-07-24T18:25:48.952Z,31.21
2018-07-24T18:28:45.883Z,31.08
2018-07-24T18:31:43.781Z,30.98
2018-07-24T18:34:41.850Z,30.88
2018-07-24T18:37:39.807Z,30.75
2018-07-24T18:40:37.823Z,30.59
2018-07-24T18:43:35.036Z,30.51
2018-07-24T18:46:32.978Z,30.45
2018-07-24T18:49:30.952Z,30.35
2018-07-24T18:52:29.043Z,30.26
2018-07-24T18:55:26.771Z,30.11
2018-07-24T18:58:24.149Z,29.97
2018-07-24T19:01:21.917Z,29.81
2018-07-24T19:04:19.346Z,29.56
2018-07-24T19:07:17.300Z,29.41
2018-07-24T19:10:14.649Z,29.28
2018-07-24T19:13:12.851Z,29.12
2018-07-24T19:16:09.762Z,28.92
2018-07-24T19:19:08.021Z,28.77
2018-07-24T19:22:05.988Z,28.51
2018-07-24T19:25:03.058Z,28.31
2018-07-24T19:28:00.242Z,28.13
2018-07-24T19:30:57.480Z,28.15
2018-07-24T19:33:55.599Z,28.01
2018-07-24T19:36:54.023Z,27.81
2018-07-24T19:39:52.161Z,27.57
2018-07-24T19:42:50.203Z,27.32
2018-07-24T19:45:47.306Z,27.25
2018-07-24T19:48:45.188Z,27.12
2018-07-24T19:51:42.449Z,26.91
2018-07-24T19:54:40.707Z,26.81
2018-07-24T19:57:37.859Z,26.70
2018-07-24T20:00:35.958Z,26.41
2018-07-24T20:03:34.421Z,26.30
2018-07-24T20:06:31.590Z,26.32
2018-07-24T20:09:30.975Z,26.02
2018-07-24T20:12:29.183Z,26.02
2018-07-24T20:15:29.790Z,26.07
2018-07-24T20:18:27.112Z,26.04
2018-07-24T20:21:25.146Z,25.82
2018-07-24T20:24:22.632Z,25.83
2018-07-24T20:27:21.483Z,25.86
2018-07-24T20:30:19.615Z,25.46
2018-07-24T20:33:17.557Z,25.42
2018-07-24T20:36:15.466Z,25.34
2018-07-24T20:39:12.951Z,25.16
2018-07-24T20:42:10.804Z,25.09
2018-07-24T20:45:07.902Z,25.08
2018-07-24T20:48:05.164Z,24.96
2018-07-24T20:51:03.302Z,24.80
2018-07-24T20:54:01.311Z,24.89
2018-07-24T20:56:59.318Z,24.68
2018-07-24T20:59:57.257Z,24.61
2018-07-24T21:02:55.296Z,24.56
2018-07-24T21:05:52.433Z,24.49
2018-07-24T21:08:50.624Z,24.26
2018-07-24T21:11:47.615Z,24.15
2018-07-24T21:14:45.572Z,23.93
2018-07-24T21:17:42.638Z,23.79
2018-07-24T21:20:39.728Z,23.75
2018-07-24T21:23:37.103Z,23.68
2018-07-24T21:26:35.279Z,23.56
2018-07-24T21:29:32.427Z,23.66
2018-07-24T21:32:29.567Z,23.60
2018-07-24T21:35:26.827Z,23.69
2018-07-24T21:38:24.062Z,23.63
2018-07-24T21:41:21.779Z,23.61
2018-07-24T21:44:19.812Z,23.54
2018-07-24T21:47:17.114Z,23.54
2018-07-24T21:50:15.219Z,23.47
2018-07-24T21:53:13.321Z,23.35
2018-07-24T21:56:11.498Z,23.20
2018-07-24T21:59:08.901Z,23.05
2018-07-24T22:02:06.946Z,22.95
2018-07-24T22:05:05.122Z,22.94
2018-07-24T22:08:02.489Z,23.03
2018-07-24T22:11:00.551Z,23.08
2018-07-24T22:13:57.829Z,23.08
2018-07-24T22:16:55.825Z,22.96
2018-07-24T22:19:54.106Z,22.90
2018-07-24T22:22:51.819Z,22.78
2018-07-24T22:25:49.825Z,22.66
2018-07-24T22:28:47.268Z,22.42
2018-07-24T22:31:44.718Z,22.36
2018-07-24T22:34:42.651Z,22.42
2018-07-24T22:37:40.284Z,22.33
2018-07-24T22:40:38.186Z,22.19
2018-07-24T22:43:36.042Z,22.12
2018-07-24T22:46:33.862Z,22.17
2018-07-24T22:49:31.867Z,22.29
2018-07-24T22:52:29.810Z,22.16
2018-07-24T22:55:27.024Z,22.16
2018-07-24T22:58:24.978Z,22.03
2018-07-24T23:01:22.749Z,21.99
2018-07-24T23:04:19.844Z,21.97
2018-07-24T23:07:18.069Z,21.92
2018-07-24T23:10:16.193Z,21.78
2018-07-24T23:13:14.354Z,21.81
2018-07-24T23:16:11.642Z,21.73
2018-07-24T23:19:08.854Z,21.49
2018-07-24T23:22:05.967Z,21.42
2018-07-24T23:25:03.317Z,21.41
2018-07-24T23:28:01.269Z,21.37
2018-07-24T23:30:59.238Z,21.48
2018-07-24T23:33:57.042Z,21.46
2018-07-24T23:36:54.237Z,21.37
2018-07-24T23:42:40.882Z,21.19
2018-07-24T23:45:38.103Z,20.94
2018-07-24T23:48:35.778Z,20.98
2018-07-24T23:51:33.600Z,21.07
2018-07-24T23:54:31.492Z,21.20
2018-07-24T23:57:29.460Z,21.25
